Aérodrome :
LOGIN :

S'inscrire | Disclaimer

   EN    FR    IT 

 










Légende :    VFR   VFR Marginal   IFR   IFR Intensif   IFR Très Intensif
Visi : 
Plafond : 
>= 8 km
>= 3000ft
5 à 8 km
1000 à 3000 ft
1500m à 5 km
500 à 1000 ft
800 à 1500m
200 à 500 ft
< 800m
< 200 ft
Symboles :   Orages  Brouillard  Fortes neiges  Fortes précipitations  Vent > 20 kt
SIGMETs :   Divers  Orages  Givrage  Turbulence  Onde Orograph.  Cendres Volcan.






- Altitude de l'aérodrome : 46 ft
- Code IATA : SNN


EINN - Shannon

DERNIER METAR :
  • 121200Z VRB03KT 9999 SCT010 19/16 Q1016 NOSIG

METARs EXPIRÉS :
  • 121130Z VRB02KT 9999 BKN008 19/16 Q1016 NOSIG
  • 121100Z 03004KT 330V100 8000 SCT007 BKN009 18/16 Q1016 NOSIG
  • 121030Z 25004KT 190V300 7000 FEW005 BKN007 17/15 Q1016 NOSIG
  • 121000Z 31004KT 240V020 6000 BKN005 16/15 Q1016 BECMG BKN007
  • 120930Z 28004KT 250V320 5000 BR FEW002 BKN004 15/15 Q1016 BECMG BKN007

TAF TAF EINN
Valide du 12 à 12h jusqu'au 13 à 12h UTC


121100Z 1212/1312 04008KT 9999 BKN009
BECMG 1212/1214 BKN020
TEMPO 1300/1310 4000 SHRA BKN012 SCT030CB
TEMPO 1310/1312 BKN009



MET'MAP, la Météo Aéronautique d'un coup d'oeil ! - Copyright ORBIFLY Décembre 2007 - Disclaimer

ORBIFLY MET'MAP TEAM :

Programmation & Développement : Alexandra Zaïnal
Sur une idée originale de : Baudouin d'Aumeries
Assistance à la programmation : Marc-Olivier Méhu
Soutien technique & logistique : Manuel Goepfert

Contact : metmap@orbifly.com




SOURCES & CREDITS :

   NOAA